sensor_id;sensor_type;location;lat;lon;timestamp;temperature;humidity
6654;DHT22;3363;50.942;7.034;2022-12-18T00:01:15;-3.50;98.80
6654;DHT22;3363;50.942;7.034;2022-12-18T00:03:42;-3.50;99.70
6654;DHT22;3363;50.942;7.034;2022-12-18T00:06:11;-3.50;99.90
6654;DHT22;3363;50.942;7.034;2022-12-18T00:08:39;-3.50;99.70
6654;DHT22;3363;50.942;7.034;2022-12-18T00:11:07;-3.40;99.90
6654;DHT22;3363;50.942;7.034;2022-12-18T00:13:34;-3.30;99.90
6654;DHT22;3363;50.942;7.034;2022-12-18T00:16:02;-3.40;99.90
6654;DHT22;3363;50.942;7.034;2022-12-18T00:18:29;-3.40;99.40
6654;DHT22;3363;50.942;7.034;2022-12-18T00:20:59;-3.40;99.90
6654;DHT22;3363;50.942;7.034;2022-12-18T00:23:28;-3.40;99.90
6654;DHT22;3363;50.942;7.034;2022-12-18T00:25:58;-3.30;99.90
6654;DHT22;3363;50.942;7.034;2022-12-18T00:28:25;-3.30;99.00
6654;DHT22;3363;50.942;7.034;2022-12-18T00:31:00;-3.40;99.00
6654;DHT22;3363;50.942;7.034;2022-12-18T00:33:27;-3.40;99.20
6654;DHT22;3363;50.942;7.034;2022-12-18T00:35:54;-3.50;97.60
6654;DHT22;3363;50.942;7.034;2022-12-18T00:38:20;-3.50;99.50
6654;DHT22;3363;50.942;7.034;2022-12-18T00:40:49;-3.60;99.50
6654;DHT22;3363;50.942;7.034;2022-12-18T00:43:15;-3.50;99.90
6654;DHT22;3363;50.942;7.034;2022-12-18T00:45:41;-3.50;99.90
6654;DHT22;3363;50.942;7.034;2022-12-18T00:48:08;-3.50;99.90
6654;DHT22;3363;50.942;7.034;2022-12-18T00:50:35;-3.40;99.90
6654;DHT22;3363;50.942;7.034;2022-12-18T00:53:02;-3.40;99.90
6654;DHT22;3363;50.942;7.034;2022-12-18T00:55:29;-3.40;99.90
6654;DHT22;3363;50.942;7.034;2022-12-18T00:57:57;-3.40;99.90
6654;DHT22;3363;50.942;7.034;2022-12-18T01:00:24;-3.40;99.60
6654;DHT22;3363;50.942;7.034;2022-12-18T01:02:51;-3.40;99.30
6654;DHT22;3363;50.942;7.034;2022-12-18T01:05:18;-3.40;98.90
6654;DHT22;3363;50.942;7.034;2022-12-18T01:07:45;-3.40;97.90
6654;DHT22;3363;50.942;7.034;2022-12-18T01:10:12;-3.40;97.70
6654;DHT22;3363;50.942;7.034;2022-12-18T01:12:40;-3.50;98.70
6654;DHT22;3363;50.942;7.034;2022-12-18T01:15:10;-3.40;99.40
6654;DHT22;3363;50.942;7.034;2022-12-18T01:17:38;-3.40;99.50
6654;DHT22;3363;50.942;7.034;2022-12-18T01:20:05;-3.40;99.80
6654;DHT22;3363;50.942;7.034;2022-12-18T01:22:36;-3.40;99.30
6654;DHT22;3363;50.942;7.034;2022-12-18T01:25:04;-3.40;99.10
6654;DHT22;3363;50.942;7.034;2022-12-18T01:27:31;-3.40;98.90
6654;DHT22;3363;50.942;7.034;2022-12-18T01:29:59;-3.50;96.60
6654;DHT22;3363;50.942;7.034;2022-12-18T01:32:29;-3.50;98.30
6654;DHT22;3363;50.942;7.034;2022-12-18T01:34:56;-3.50;98.90
6654;DHT22;3363;50.942;7.034;2022-12-18T01:37:24;-3.50;98.30
6654;DHT22;3363;50.942;7.034;2022-12-18T01:39:52;-3.50;96.30
6654;DHT22;3363;50.942;7.034;2022-12-18T01:42:22;-3.50;98.90
6654;DHT22;3363;50.942;7.034;2022-12-18T01:45:21;-3.50;98.40
6654;DHT22;3363;50.942;7.034;2022-12-18T01:47:52;-3.50;96.80
6654;DHT22;3363;50.942;7.034;2022-12-18T01:50:22;-3.50;98.00
6654;DHT22;3363;50.942;7.034;2022-12-18T01:52:51;-3.50;98.80
6654;DHT22;3363;50.942;7.034;2022-12-18T01:55:22;-3.50;98.50
6654;DHT22;3363;50.942;7.034;2022-12-18T01:57:52;-3.40;98.50
6654;DHT22;3363;50.942;7.034;2022-12-18T02:00:21;-3.40;98.20
6654;DHT22;3363;50.942;7.034;2022-12-18T02:02:49;-3.40;97.70
6654;DHT22;3363;50.942;7.034;2022-12-18T02:05:18;-3.40;98.30
6654;DHT22;3363;50.942;7.034;2022-12-18T02:07:53;-3.50;97.40
6654;DHT22;3363;50.942;7.034;2022-12-18T02:10:27;-3.50;98.00
6654;DHT22;3363;50.942;7.034;2022-12-18T02:13:02;-3.50;97.80
6654;DHT22;3363;50.942;7.034;2022-12-18T02:15:38;-3.50;97.10
6654;DHT22;3363;50.942;7.034;2022-12-18T02:18:22;-3.50;97.80
6654;DHT22;3363;50.942;7.034;2022-12-18T02:20:55;-3.50;97.90
6654;DHT22;3363;50.942;7.034;2022-12-18T02:23:37;-3.50;97.80
6654;DHT22;3363;50.942;7.034;2022-12-18T02:26:15;-3.50;97.60
6654;DHT22;3363;50.942;7.034;2022-12-18T02:28:47;-3.50;97.30
6654;DHT22;3363;50.942;7.034;2022-12-18T02:31:24;-3.50;97.30
6654;DHT22;3363;50.942;7.034;2022-12-18T02:33:58;-3.50;97.30
6654;DHT22;3363;50.942;7.034;2022-12-18T02:36:27;-3.50;97.40
6654;DHT22;3363;50.942;7.034;2022-12-18T02:38:56;-3.50;97.10
6654;DHT22;3363;50.942;7.034;2022-12-18T02:41:26;-3.50;97.00
6654;DHT22;3363;50.942;7.034;2022-12-18T02:43:56;-3.50;97.00
6654;DHT22;3363;50.942;7.034;2022-12-18T02:46:37;-3.50;97.30
6654;DHT22;3363;50.942;7.034;2022-12-18T02:49:17;-3.60;96.50
6654;DHT22;3363;50.942;7.034;2022-12-18T02:51:52;-3.60;97.00
6654;DHT22;3363;50.942;7.034;2022-12-18T02:54:32;-3.60;97.00
6654;DHT22;3363;50.942;7.034;2022-12-18T02:57:12;-3.60;96.80
6654;DHT22;3363;50.942;7.034;2022-12-18T02:59:42;-3.60;96.20
6654;DHT22;3363;50.942;7.034;2022-12-18T03:02:33;-3.70;96.70
6654;DHT22;3363;50.942;7.034;2022-12-18T03:05:07;-3.60;97.10
6654;DHT22;3363;50.942;7.034;2022-12-18T03:07:45;-3.60;97.30
6654;DHT22;3363;50.942;7.034;2022-12-18T03:10:16;-3.60;97.10
6654;DHT22;3363;50.942;7.034;2022-12-18T03:12:51;-3.60;97.40
6654;DHT22;3363;50.942;7.034;2022-12-18T03:15:23;-3.60;97.00
6654;DHT22;3363;50.942;7.034;2022-12-18T03:17:52;-3.70;96.00
6654;DHT22;3363;50.942;7.034;2022-12-18T03:20:22;-3.70;97.30
6654;DHT22;3363;50.942;7.034;2022-12-18T03:22:57;-3.70;97.00
6654;DHT22;3363;50.942;7.034;2022-12-18T03:25:32;-3.80;95.80
6654;DHT22;3363;50.942;7.034;2022-12-18T03:28:03;-3.90;96.70
6654;DHT22;3363;50.942;7.034;2022-12-18T03:30:37;-3.80;97.90
6654;DHT22;3363;50.942;7.034;2022-12-18T03:33:09;-3.80;97.60
6654;DHT22;3363;50.942;7.034;2022-12-18T03:35:40;-3.80;98.70
6654;DHT22;3363;50.942;7.034;2022-12-18T03:38:09;-3.70;98.20
6654;DHT22;3363;50.942;7.034;2022-12-18T03:40:44;-3.70;98.10
6654;DHT22;3363;50.942;7.034;2022-12-18T03:43:17;-3.70;98.10
6654;DHT22;3363;50.942;7.034;2022-12-18T03:45:51;-3.80;96.90
6654;DHT22;3363;50.942;7.034;2022-12-18T03:48:25;-3.60;98.00
6654;DHT22;3363;50.942;7.034;2022-12-18T03:50:57;-3.60;97.10
6654;DHT22;3363;50.942;7.034;2022-12-18T03:53:29;-3.60;96.90
6654;DHT22;3363;50.942;7.034;2022-12-18T03:55:58;-3.60;97.10
6654;DHT22;3363;50.942;7.034;2022-12-18T03:58:29;-3.60;96.80
6654;DHT22;3363;50.942;7.034;2022-12-18T04:01:00;-3.60;96.80
6654;DHT22;3363;50.942;7.034;2022-12-18T04:03:29;-3.60;96.70
6654;DHT22;3363;50.942;7.034;2022-12-18T04:05:58;-3.70;96.30
6654;DHT22;3363;50.942;7.034;2022-12-18T04:08:27;-3.70;96.50
6654;DHT22;3363;50.942;7.034;2022-12-18T04:10:54;-3.70;96.40
6654;DHT22;3363;50.942;7.034;2022-12-18T04:13:24;-3.70;96.20
6654;DHT22;3363;50.942;7.034;2022-12-18T04:15:53;-3.70;96.10
6654;DHT22;3363;50.942;7.034;2022-12-18T04:18:20;-3.80;95.70
6654;DHT22;3363;50.942;7.034;2022-12-18T04:20:46;-3.80;96.40
6654;DHT22;3363;50.942;7.034;2022-12-18T04:23:13;-3.80;96.00
6654;DHT22;3363;50.942;7.034;2022-12-18T04:25:40;-3.90;95.90
6654;DHT22;3363;50.942;7.034;2022-12-18T04:28:07;-3.90;96.40
6654;DHT22;3363;50.942;7.034;2022-12-18T04:30:34;-3.90;96.50
6654;DHT22;3363;50.942;7.034;2022-12-18T04:33:02;-3.90;96.60
6654;DHT22;3363;50.942;7.034;2022-12-18T04:35:29;-3.90;96.90
6654;DHT22;3363;50.942;7.034;2022-12-18T04:37:56;-3.90;96.00
6654;DHT22;3363;50.942;7.034;2022-12-18T04:40:23;-3.90;96.10
6654;DHT22;3363;50.942;7.034;2022-12-18T04:42:50;-3.90;96.70
6654;DHT22;3363;50.942;7.034;2022-12-18T04:45:18;-3.90;96.90
6654;DHT22;3363;50.942;7.034;2022-12-18T04:47:45;-3.90;96.20
6654;DHT22;3363;50.942;7.034;2022-12-18T04:50:13;-3.90;95.70
6654;DHT22;3363;50.942;7.034;2022-12-18T04:52:40;-3.80;96.40
6654;DHT22;3363;50.942;7.034;2022-12-18T04:55:07;-3.80;96.30
6654;DHT22;3363;50.942;7.034;2022-12-18T04:57:34;-3.90;95.90
6654;DHT22;3363;50.942;7.034;2022-12-18T05:00:00;-3.90;95.80
6654;DHT22;3363;50.942;7.034;2022-12-18T05:02:27;-3.90;96.60
6654;DHT22;3363;50.942;7.034;2022-12-18T05:04:56;-4.00;94.10
6654;DHT22;3363;50.942;7.034;2022-12-18T05:07:24;-4.00;95.40
6654;DHT22;3363;50.942;7.034;2022-12-18T05:09:51;-4.00;96.60
6654;DHT22;3363;50.942;7.034;2022-12-18T05:12:18;-4.00;96.50
6654;DHT22;3363;50.942;7.034;2022-12-18T05:14:45;-4.00;96.00
6654;DHT22;3363;50.942;7.034;2022-12-18T05:17:12;-4.00;95.50
6654;DHT22;3363;50.942;7.034;2022-12-18T05:19:39;-4.00;95.90
6654;DHT22;3363;50.942;7.034;2022-12-18T05:22:07;-4.20;94.90
6654;DHT22;3363;50.942;7.034;2022-12-18T05:24:35;-4.20;96.60
6654;DHT22;3363;50.942;7.034;2022-12-18T05:27:02;-4.10;97.00
6654;DHT22;3363;50.942;7.034;2022-12-18T05:29:29;-4.00;98.00
6654;DHT22;3363;50.942;7.034;2022-12-18T05:31:56;-4.00;96.80
6654;DHT22;3363;50.942;7.034;2022-12-18T05:34:23;-4.00;96.60
6654;DHT22;3363;50.942;7.034;2022-12-18T05:36:50;-4.00;95.70
6654;DHT22;3363;50.942;7.034;2022-12-18T05:39:19;-4.00;96.30
6654;DHT22;3363;50.942;7.034;2022-12-18T05:41:54;-4.00;96.30
6654;DHT22;3363;50.942;7.034;2022-12-18T05:44:21;-4.00;96.80
6654;DHT22;3363;50.942;7.034;2022-12-18T05:46:54;-4.00;95.80
6654;DHT22;3363;50.942;7.034;2022-12-18T05:49:20;-4.00;96.20
6654;DHT22;3363;50.942;7.034;2022-12-18T05:51:47;-4.00;96.50
6654;DHT22;3363;50.942;7.034;2022-12-18T05:54:14;-4.00;96.50
6654;DHT22;3363;50.942;7.034;2022-12-18T05:56:43;-4.00;97.00
6654;DHT22;3363;50.942;7.034;2022-12-18T05:59:23;-4.00;96.50
6654;DHT22;3363;50.942;7.034;2022-12-18T06:01:50;-3.90;96.40
6654;DHT22;3363;50.942;7.034;2022-12-18T06:04:17;-4.00;95.10
6654;DHT22;3363;50.942;7.034;2022-12-18T06:06:44;-4.00;95.90
6654;DHT22;3363;50.942;7.034;2022-12-18T06:09:11;-4.10;95.80
6654;DHT22;3363;50.942;7.034;2022-12-18T06:11:38;-4.00;96.60
6654;DHT22;3363;50.942;7.034;2022-12-18T06:14:05;-4.00;96.30
6654;DHT22;3363;50.942;7.034;2022-12-18T06:16:34;-4.00;96.40
6654;DHT22;3363;50.942;7.034;2022-12-18T06:19:02;-4.00;95.60
6654;DHT22;3363;50.942;7.034;2022-12-18T06:21:30;-4.10;95.70
6654;DHT22;3363;50.942;7.034;2022-12-18T06:23:57;-4.20;96.60
6654;DHT22;3363;50.942;7.034;2022-12-18T06:26:25;-4.20;96.00
6654;DHT22;3363;50.942;7.034;2022-12-18T06:28:51;-4.20;96.40
6654;DHT22;3363;50.942;7.034;2022-12-18T06:31:18;-4.20;96.80
6654;DHT22;3363;50.942;7.034;2022-12-18T06:33:46;-4.20;97.50
6654;DHT22;3363;50.942;7.034;2022-12-18T06:36:14;-4.20;97.20
6654;DHT22;3363;50.942;7.034;2022-12-18T06:38:42;-4.20;96.90
6654;DHT22;3363;50.942;7.034;2022-12-18T06:41:15;-4.10;97.10
6654;DHT22;3363;50.942;7.034;2022-12-18T06:43:42;-4.10;97.40
6654;DHT22;3363;50.942;7.034;2022-12-18T06:46:10;-4.10;96.80
6654;DHT22;3363;50.942;7.034;2022-12-18T06:48:37;-4.10;96.70
6654;DHT22;3363;50.942;7.034;2022-12-18T06:51:05;-4.00;96.70
6654;DHT22;3363;50.942;7.034;2022-12-18T06:53:57;-4.00;96.80
6654;DHT22;3363;50.942;7.034;2022-12-18T06:56:26;-4.00;96.10
6654;DHT22;3363;50.942;7.034;2022-12-18T06:58:53;-4.00;95.20
6654;DHT22;3363;50.942;7.034;2022-12-18T07:01:21;-4.00;95.80
6654;DHT22;3363;50.942;7.034;2022-12-18T07:03:51;-4.00;95.80
6654;DHT22;3363;50.942;7.034;2022-12-18T07:06:22;-4.10;94.90
6654;DHT22;3363;50.942;7.034;2022-12-18T07:08:50;-4.10;95.70
6654;DHT22;3363;50.942;7.034;2022-12-18T07:11:18;-4.10;95.60
6654;DHT22;3363;50.942;7.034;2022-12-18T07:13:54;-4.10;95.50
6654;DHT22;3363;50.942;7.034;2022-12-18T07:16:21;-4.20;95.40
6654;DHT22;3363;50.942;7.034;2022-12-18T07:18:48;-4.20;95.70
6654;DHT22;3363;50.942;7.034;2022-12-18T07:21:16;-4.10;96.10
6654;DHT22;3363;50.942;7.034;2022-12-18T07:23:54;-4.10;96.20
6654;DHT22;3363;50.942;7.034;2022-12-18T07:26:21;-4.10;95.80
6654;DHT22;3363;50.942;7.034;2022-12-18T07:28:48;-4.10;95.40
6654;DHT22;3363;50.942;7.034;2022-12-18T07:31:17;-4.10;95.20
6654;DHT22;3363;50.942;7.034;2022-12-18T07:33:45;-4.10;95.10
6654;DHT22;3363;50.942;7.034;2022-12-18T07:36:19;-4.10;95.30
6654;DHT22;3363;50.942;7.034;2022-12-18T07:38:47;-4.10;95.10
6654;DHT22;3363;50.942;7.034;2022-12-18T07:41:16;-4.10;94.80
6654;DHT22;3363;50.942;7.034;2022-12-18T07:43:44;-4.10;95.10
6654;DHT22;3363;50.942;7.034;2022-12-18T07:46:12;-4.10;95.00
6654;DHT22;3363;50.942;7.034;2022-12-18T07:48:40;-4.20;94.30
6654;DHT22;3363;50.942;7.034;2022-12-18T07:51:07;-4.20;94.70
6654;DHT22;3363;50.942;7.034;2022-12-18T07:53:36;-4.20;95.30
6654;DHT22;3363;50.942;7.034;2022-12-18T07:56:05;-4.20;95.50
6654;DHT22;3363;50.942;7.034;2022-12-18T07:58:34;-4.10;95.80
6654;DHT22;3363;50.942;7.034;2022-12-18T08:01:04;-4.10;95.00
6654;DHT22;3363;50.942;7.034;2022-12-18T08:03:31;-4.10;95.50
6654;DHT22;3363;50.942;7.034;2022-12-18T08:05:59;-4.00;95.10
6654;DHT22;3363;50.942;7.034;2022-12-18T08:08:27;-4.10;94.50
6654;DHT22;3363;50.942;7.034;2022-12-18T08:10:58;-4.20;94.80
6654;DHT22;3363;50.942;7.034;2022-12-18T08:13:25;-4.40;95.50
6654;DHT22;3363;50.942;7.034;2022-12-18T08:15:57;-4.30;96.60
6654;DHT22;3363;50.942;7.034;2022-12-18T08:18:24;-4.20;97.00
6654;DHT22;3363;50.942;7.034;2022-12-18T08:20:51;-4.20;96.30
6654;DHT22;3363;50.942;7.034;2022-12-18T08:23:18;-4.30;96.10
6654;DHT22;3363;50.942;7.034;2022-12-18T08:25:45;-4.30;96.30
6654;DHT22;3363;50.942;7.034;2022-12-18T08:28:12;-4.30;97.60
6654;DHT22;3363;50.942;7.034;2022-12-18T08:30:39;-4.30;98.10
6654;DHT22;3363;50.942;7.034;2022-12-18T08:33:07;-4.20;98.50
6654;DHT22;3363;50.942;7.034;2022-12-18T08:35:35;-4.20;98.30
6654;DHT22;3363;50.942;7.034;2022-12-18T08:38:03;-4.20;97.90
6654;DHT22;3363;50.942;7.034;2022-12-18T08:40:30;-4.20;98.10
6654;DHT22;3363;50.942;7.034;2022-12-18T08:42:57;-4.10;98.00
6654;DHT22;3363;50.942;7.034;2022-12-18T08:45:41;-4.00;97.70
6654;DHT22;3363;50.942;7.034;2022-12-18T08:48:09;-4.00;97.20
6654;DHT22;3363;50.942;7.034;2022-12-18T08:50:36;-4.00;97.10
6654;DHT22;3363;50.942;7.034;2022-12-18T08:53:03;-3.90;96.40
6654;DHT22;3363;50.942;7.034;2022-12-18T08:55:30;-3.90;96.10
6654;DHT22;3363;50.942;7.034;2022-12-18T08:57:57;-3.90;96.10
6654;DHT22;3363;50.942;7.034;2022-12-18T09:00:24;-3.90;98.40
6654;DHT22;3363;50.942;7.034;2022-12-18T09:02:51;-3.90;97.50
6654;DHT22;3363;50.942;7.034;2022-12-18T09:05:19;-3.90;99.90
6654;DHT22;3363;50.942;7.034;2022-12-18T09:07:46;-3.90;99.90
6654;DHT22;3363;50.942;7.034;2022-12-18T09:10:12;-3.90;99.90
6654;DHT22;3363;50.942;7.034;2022-12-18T09:12:39;-3.90;99.90
6654;DHT22;3363;50.942;7.034;2022-12-18T09:15:06;-3.80;99.90
6654;DHT22;3363;50.942;7.034;2022-12-18T09:17:33;-3.80;99.90
6654;DHT22;3363;50.942;7.034;2022-12-18T09:19:59;-3.80;99.90
6654;DHT22;3363;50.942;7.034;2022-12-18T09:22:27;-3.80;99.90
6654;DHT22;3363;50.942;7.034;2022-12-18T09:24:54;-3.80;99.90
6654;DHT22;3363;50.942;7.034;2022-12-18T09:27:21;-3.80;99.90
6654;DHT22;3363;50.942;7.034;2022-12-18T09:29:47;-3.80;99.90
6654;DHT22;3363;50.942;7.034;2022-12-18T09:32:14;-3.70;99.90
6654;DHT22;3363;50.942;7.034;2022-12-18T09:34:41;-3.70;99.90
6654;DHT22;3363;50.942;7.034;2022-12-18T09:37:08;-3.70;99.90
6654;DHT22;3363;50.942;7.034;2022-12-18T09:39:36;-3.70;99.90
6654;DHT22;3363;50.942;7.034;2022-12-18T09:42:04;-3.50;99.90
6654;DHT22;3363;50.942;7.034;2022-12-18T09:44:32;-3.30;99.90
6654;DHT22;3363;50.942;7.034;2022-12-18T09:47:02;-3.20;99.90
6654;DHT22;3363;50.942;7.034;2022-12-18T09:49:30;-3.30;99.90
6654;DHT22;3363;50.942;7.034;2022-12-18T09:51:57;-3.20;99.90
6654;DHT22;3363;50.942;7.034;2022-12-18T09:54:26;-3.10;99.90
6654;DHT22;3363;50.942;7.034;2022-12-18T09:56:58;-3.00;99.90
6654;DHT22;3363;50.942;7.034;2022-12-18T09:59:25;-2.90;99.90
6654;DHT22;3363;50.942;7.034;2022-12-18T10:01:53;-2.90;99.50
6654;DHT22;3363;50.942;7.034;2022-12-18T10:04:19;-2.90;99.90
6654;DHT22;3363;50.942;7.034;2022-12-18T10:06:48;-2.90;99.90
6654;DHT22;3363;50.942;7.034;2022-12-18T10:09:19;-2.70;99.90
6654;DHT22;3363;50.942;7.034;2022-12-18T10:11:48;-2.70;99.90
6654;DHT22;3363;50.942;7.034;2022-12-18T10:14:23;-2.70;98.80
6654;DHT22;3363;50.942;7.034;2022-12-18T10:16:56;-2.70;98.50
6654;DHT22;3363;50.942;7.034;2022-12-18T10:19:33;-2.60;99.90
6654;DHT22;3363;50.942;7.034;2022-12-18T10:22:02;-2.70;97.30
6654;DHT22;3363;50.942;7.034;2022-12-18T10:24:37;-2.60;99.90
6654;DHT22;3363;50.942;7.034;2022-12-18T10:27:09;-2.60;99.90
6654;DHT22;3363;50.942;7.034;2022-12-18T10:32:06;-2.40;99.90
6654;DHT22;3363;50.942;7.034;2022-12-18T10:34:33;-2.10;97.30
6654;DHT22;3363;50.942;7.034;2022-12-18T10:37:00;-2.40;95.70
6654;DHT22;3363;50.942;7.034;2022-12-18T10:39:45;-2.20;94.80
6654;DHT22;3363;50.942;7.034;2022-12-18T10:42:15;-2.20;99.10
6654;DHT22;3363;50.942;7.034;2022-12-18T10:44:42;-2.30;96.70
6654;DHT22;3363;50.942;7.034;2022-12-18T10:47:12;-2.20;93.70
6654;DHT22;3363;50.942;7.034;2022-12-18T10:49:42;-1.60;91.10
6654;DHT22;3363;50.942;7.034;2022-12-18T10:52:12;-1.70;84.50
6654;DHT22;3363;50.942;7.034;2022-12-18T10:54:45;-1.50;90.50
6654;DHT22;3363;50.942;7.034;2022-12-18T10:59:49;-1.20;83.00
6654;DHT22;3363;50.942;7.034;2022-12-18T11:02:24;-1.10;88.80
6654;DHT22;3363;50.942;7.034;2022-12-18T11:04:52;-1.10;83.70
6654;DHT22;3363;50.942;7.034;2022-12-18T11:07:19;-1.30;81.90
6654;DHT22;3363;50.942;7.034;2022-12-18T11:09:45;-1.30;79.80
6654;DHT22;3363;50.942;7.034;2022-12-18T11:12:26;-1.10;80.40
6654;DHT22;3363;50.942;7.034;2022-12-18T11:14:54;-1.00;79.00
6654;DHT22;3363;50.942;7.034;2022-12-18T11:17:22;-1.20;79.70
6654;DHT22;3363;50.942;7.034;2022-12-18T11:19:53;-1.20;81.20
6654;DHT22;3363;50.942;7.034;2022-12-18T11:22:21;-1.20;78.90
6654;DHT22;3363;50.942;7.034;2022-12-18T11:24:52;-1.10;78.30
6654;DHT22;3363;50.942;7.034;2022-12-18T11:27:19;-1.10;78.10
6654;DHT22;3363;50.942;7.034;2022-12-18T11:29:46;-1.10;78.40
6654;DHT22;3363;50.942;7.034;2022-12-18T11:32:21;-1.10;79.60
6654;DHT22;3363;50.942;7.034;2022-12-18T11:34:53;-0.90;80.70
6654;DHT22;3363;50.942;7.034;2022-12-18T11:37:22;-1.10;79.20
6654;DHT22;3363;50.942;7.034;2022-12-18T11:39:49;-1.00;81.90
6654;DHT22;3363;50.942;7.034;2022-12-18T11:42:20;-0.90;80.30
6654;DHT22;3363;50.942;7.034;2022-12-18T11:44:49;-1.00;78.80
6654;DHT22;3363;50.942;7.034;2022-12-18T11:47:22;-0.80;80.20
6654;DHT22;3363;50.942;7.034;2022-12-18T11:49:53;-1.00;79.80
6654;DHT22;3363;50.942;7.034;2022-12-18T11:52:23;-0.90;79.20
6654;DHT22;3363;50.942;7.034;2022-12-18T11:54:53;-1.00;79.70
6654;DHT22;3363;50.942;7.034;2022-12-18T11:57:27;-1.30;78.60
6654;DHT22;3363;50.942;7.034;2022-12-18T12:00:04;-1.20;78.20
6654;DHT22;3363;50.942;7.034;2022-12-18T12:02:38;-1.20;80.90
6654;DHT22;3363;50.942;7.034;2022-12-18T12:05:19;-0.90;79.20
6654;DHT22;3363;50.942;7.034;2022-12-18T12:07:48;-1.20;78.50
6654;DHT22;3363;50.942;7.034;2022-12-18T12:10:24;-1.30;79.90
6654;DHT22;3363;50.942;7.034;2022-12-18T12:12:57;-1.10;82.40
6654;DHT22;3363;50.942;7.034;2022-12-18T12:15:27;-1.40;79.60
6654;DHT22;3363;50.942;7.034;2022-12-18T12:17:57;-1.20;79.50
6654;DHT22;3363;50.942;7.034;2022-12-18T12:20:28;-1.40;79.50
6654;DHT22;3363;50.942;7.034;2022-12-18T12:23:03;-1.20;79.00
6654;DHT22;3363;50.942;7.034;2022-12-18T12:25:33;-1.30;81.10
6654;DHT22;3363;50.942;7.034;2022-12-18T12:28:06;-1.10;78.10
6654;DHT22;3363;50.942;7.034;2022-12-18T12:30:40;-1.20;79.00
6654;DHT22;3363;50.942;7.034;2022-12-18T12:33:14;-1.10;81.50
6654;DHT22;3363;50.942;7.034;2022-12-18T12:35:47;-1.10;79.60
6654;DHT22;3363;50.942;7.034;2022-12-18T12:38:17;-1.20;79.40
6654;DHT22;3363;50.942;7.034;2022-12-18T12:40:47;-0.90;77.80
6654;DHT22;3363;50.942;7.034;2022-12-18T12:43:27;-0.90;79.20
6654;DHT22;3363;50.942;7.034;2022-12-18T12:46:03;-1.20;77.80
6654;DHT22;3363;50.942;7.034;2022-12-18T12:48:37;-1.50;79.90
6654;DHT22;3363;50.942;7.034;2022-12-18T12:51:08;-1.10;79.70
6654;DHT22;3363;50.942;7.034;2022-12-18T12:53:37;-1.20;79.00
6654;DHT22;3363;50.942;7.034;2022-12-18T12:56:04;-1.10;77.10
6654;DHT22;3363;50.942;7.034;2022-12-18T12:58:33;-1.20;79.70
6654;DHT22;3363;50.942;7.034;2022-12-18T13:01:09;-1.10;77.80
6654;DHT22;3363;50.942;7.034;2022-12-18T13:03:41;-1.00;80.60
6654;DHT22;3363;50.942;7.034;2022-12-18T13:06:11;-0.90;79.60
6654;DHT22;3363;50.942;7.034;2022-12-18T13:08:51;-1.10;82.00
6654;DHT22;3363;50.942;7.034;2022-12-18T13:11:28;-1.10;82.80
6654;DHT22;3363;50.942;7.034;2022-12-18T13:14:19;-1.00;78.60
6654;DHT22;3363;50.942;7.034;2022-12-18T13:16:46;-0.80;77.50
6654;DHT22;3363;50.942;7.034;2022-12-18T13:19:19;-1.00;79.10
6654;DHT22;3363;50.942;7.034;2022-12-18T13:21:53;-1.10;84.20
6654;DHT22;3363;50.942;7.034;2022-12-18T13:24:22;-1.20;82.60
6654;DHT22;3363;50.942;7.034;2022-12-18T13:26:49;-1.40;82.40
6654;DHT22;3363;50.942;7.034;2022-12-18T13:29:39;-1.20;82.50
6654;DHT22;3363;50.942;7.034;2022-12-18T13:32:19;-1.30;82.00
6654;DHT22;3363;50.942;7.034;2022-12-18T13:34:46;-1.50;82.90
6654;DHT22;3363;50.942;7.034;2022-12-18T13:40:00;-1.50;88.20
6654;DHT22;3363;50.942;7.034;2022-12-18T13:42:39;-1.40;84.50
6654;DHT22;3363;50.942;7.034;2022-12-18T13:48:18;-1.30;86.40
6654;DHT22;3363;50.942;7.034;2022-12-18T13:50:52;-1.50;83.80
6654;DHT22;3363;50.942;7.034;2022-12-18T13:53:20;-1.30;83.30
6654;DHT22;3363;50.942;7.034;2022-12-18T13:55:50;-1.30;85.30
6654;DHT22;3363;50.942;7.034;2022-12-18T13:58:17;-1.40;85.00
6654;DHT22;3363;50.942;7.034;2022-12-18T14:00:44;-1.50;84.70
6654;DHT22;3363;50.942;7.034;2022-12-18T14:03:21;-1.60;86.60
6654;DHT22;3363;50.942;7.034;2022-12-18T14:05:52;-1.50;86.20
6654;DHT22;3363;50.942;7.034;2022-12-18T14:08:19;-1.40;85.70
6654;DHT22;3363;50.942;7.034;2022-12-18T14:10:47;-1.50;84.80
6654;DHT22;3363;50.942;7.034;2022-12-18T14:13:17;-1.50;86.20
6654;DHT22;3363;50.942;7.034;2022-12-18T14:15:46;-1.50;87.10
6654;DHT22;3363;50.942;7.034;2022-12-18T14:18:17;-1.60;88.40
6654;DHT22;3363;50.942;7.034;2022-12-18T14:20:45;-1.60;86.10
6654;DHT22;3363;50.942;7.034;2022-12-18T14:23:24;-1.60;86.10
6654;DHT22;3363;50.942;7.034;2022-12-18T14:25:52;-1.60;90.30
6654;DHT22;3363;50.942;7.034;2022-12-18T14:28:20;-1.70;87.50
6654;DHT22;3363;50.942;7.034;2022-12-18T14:30:47;-1.70;87.40
6654;DHT22;3363;50.942;7.034;2022-12-18T14:33:15;-1.60;89.60
6654;DHT22;3363;50.942;7.034;2022-12-18T14:35:43;-1.50;83.80
6654;DHT22;3363;50.942;7.034;2022-12-18T14:38:19;-1.60;87.60
6654;DHT22;3363;50.942;7.034;2022-12-18T14:40:50;-1.70;87.20
6654;DHT22;3363;50.942;7.034;2022-12-18T14:43:19;-1.60;88.60
6654;DHT22;3363;50.942;7.034;2022-12-18T14:45:46;-1.70;88.10
6654;DHT22;3363;50.942;7.034;2022-12-18T14:48:15;-1.50;85.80
6654;DHT22;3363;50.942;7.034;2022-12-18T14:50:55;-1.50;85.40
6654;DHT22;3363;50.942;7.034;2022-12-18T14:53:23;-1.50;84.30
6654;DHT22;3363;50.942;7.034;2022-12-18T14:55:55;-1.50;84.70
6654;DHT22;3363;50.942;7.034;2022-12-18T14:58:23;-1.60;87.00
6654;DHT22;3363;50.942;7.034;2022-12-18T15:00:49;-1.60;86.20
6654;DHT22;3363;50.942;7.034;2022-12-18T15:03:17;-1.50;86.50
6654;DHT22;3363;50.942;7.034;2022-12-18T15:05:45;-1.50;84.40
6654;DHT22;3363;50.942;7.034;2022-12-18T15:08:26;-1.50;83.90
6654;DHT22;3363;50.942;7.034;2022-12-18T15:10:54;-1.60;87.40
6654;DHT22;3363;50.942;7.034;2022-12-18T15:13:24;-1.60;86.20
6654;DHT22;3363;50.942;7.034;2022-12-18T15:15:51;-1.60;85.00
6654;DHT22;3363;50.942;7.034;2022-12-18T15:18:19;-1.60;86.10
6654;DHT22;3363;50.942;7.034;2022-12-18T15:20:48;-1.60;85.90
6654;DHT22;3363;50.942;7.034;2022-12-18T15:23:16;-1.60;83.60
6654;DHT22;3363;50.942;7.034;2022-12-18T15:25:43;-1.50;83.60
6654;DHT22;3363;50.942;7.034;2022-12-18T15:28:15;-1.60;83.90
6654;DHT22;3363;50.942;7.034;2022-12-18T15:33:26;-1.60;85.60
6654;DHT22;3363;50.942;7.034;2022-12-18T15:35:57;-1.70;86.00
6654;DHT22;3363;50.942;7.034;2022-12-18T15:38:24;-1.70;86.40
6654;DHT22;3363;50.942;7.034;2022-12-18T15:40:50;-1.70;85.50
6654;DHT22;3363;50.942;7.034;2022-12-18T15:43:17;-1.70;86.80
6654;DHT22;3363;50.942;7.034;2022-12-18T15:46:02;-1.70;87.10
6654;DHT22;3363;50.942;7.034;2022-12-18T15:48:31;-1.70;86.60
6654;DHT22;3363;50.942;7.034;2022-12-18T15:50:58;-1.70;88.60
6654;DHT22;3363;50.942;7.034;2022-12-18T15:53:25;-1.60;87.10
6654;DHT22;3363;50.942;7.034;2022-12-18T15:55:54;-1.70;87.70
6654;DHT22;3363;50.942;7.034;2022-12-18T15:58:38;-1.70;89.20
6654;DHT22;3363;50.942;7.034;2022-12-18T16:01:05;-1.60;87.50
6654;DHT22;3363;50.942;7.034;2022-12-18T16:03:33;-1.70;87.30
6654;DHT22;3363;50.942;7.034;2022-12-18T16:05:59;-1.60;88.20
6654;DHT22;3363;50.942;7.034;2022-12-18T16:08:27;-1.70;89.00
6654;DHT22;3363;50.942;7.034;2022-12-18T16:10:54;-1.70;88.50
6654;DHT22;3363;50.942;7.034;2022-12-18T16:13:21;-1.70;89.30
6654;DHT22;3363;50.942;7.034;2022-12-18T16:15:48;-1.70;89.50
6654;DHT22;3363;50.942;7.034;2022-12-18T16:18:14;-1.80;89.80
6654;DHT22;3363;50.942;7.034;2022-12-18T16:20:42;-1.80;90.70
6654;DHT22;3363;50.942;7.034;2022-12-18T16:23:09;-1.80;91.30
6654;DHT22;3363;50.942;7.034;2022-12-18T16:25:36;-1.80;90.60
6654;DHT22;3363;50.942;7.034;2022-12-18T16:28:02;-1.80;90.40
6654;DHT22;3363;50.942;7.034;2022-12-18T16:30:29;-1.80;90.80
6654;DHT22;3363;50.942;7.034;2022-12-18T16:32:56;-1.70;90.90